createdAt,value
2018-08-24T00:01:01.933Z,20.87
2018-08-24T00:02:11.784Z,20.88
2018-08-24T00:03:20.819Z,20.8
2018-08-24T00:04:30.392Z,20.8
2018-08-24T00:05:39.967Z,20.82
2018-08-24T00:06:50.097Z,20.76
2018-08-24T00:07:59.400Z,20.79
2018-08-24T00:09:09.509Z,20.72
2018-08-24T00:10:19.618Z,20.74
2018-08-24T00:11:29.508Z,20.85
2018-08-24T00:12:39.356Z,20.84
2018-08-24T00:13:48.939Z,20.79
2018-08-24T00:14:58.511Z,20.85
2018-08-24T00:16:08.082Z,20.82
2018-08-24T00:17:17.923Z,20.88
2018-08-24T00:18:28.027Z,20.87
2018-08-24T00:19:38.140Z,20.84
2018-08-24T00:20:47.447Z,20.84
2018-08-24T00:21:57.017Z,20.85
2018-08-24T00:23:06.588Z,20.82
2018-08-24T00:24:16.698Z,20.82
2018-08-24T00:25:26.823Z,20.91
2018-08-24T00:26:36.400Z,20.98
2018-08-24T00:27:45.968Z,20.87
2018-08-24T00:28:55.809Z,20.8
2018-08-24T00:30:05.382Z,20.82
2018-08-24T00:31:15.224Z,20.79
2018-08-24T00:32:24.800Z,20.74
2018-08-24T00:33:34.376Z,20.89
2018-08-24T00:34:44.486Z,20.82
2018-08-24T00:35:54.056Z,20.88
2018-08-24T00:37:03.892Z,20.82
2018-08-24T00:38:20.057Z,20.77
2018-08-24T00:39:30.173Z,20.87
2018-08-24T00:40:40.335Z,20.82
2018-08-24T00:41:50.449Z,20.79
2018-08-24T00:43:00.571Z,20.76
2018-08-24T00:44:10.135Z,20.82
2018-08-24T00:45:19.715Z,20.84
2018-08-24T00:46:29.551Z,20.85
2018-08-24T00:47:39.394Z,20.94
2018-08-24T00:48:49.231Z,20.82
2018-08-24T00:49:58.802Z,20.72
2018-08-24T00:51:08.110Z,20.85
2018-08-24T00:52:17.410Z,20.85
2018-08-24T00:53:27.253Z,20.84
2018-08-24T00:54:37.098Z,20.82
2018-08-24T00:55:46.933Z,20.73
2018-08-24T00:56:57.044Z,20.55
2018-08-24T00:58:06.612Z,20.42
2018-08-24T00:59:15.915Z,20.61
2018-08-24T01:00:25.216Z,20.52
2018-08-24T01:01:35.062Z,20.48
2018-08-24T01:02:44.642Z,20.48
2018-08-24T01:03:54.483Z,20.38
2018-08-24T01:05:04.592Z,20.39
2018-08-24T01:06:13.638Z,20.33
2018-08-24T01:07:23.758Z,20.35
2018-08-24T01:08:33.945Z,20.06
2018-08-24T01:09:43.792Z,20.13
2018-08-24T01:10:53.632Z,19.69
2018-08-24T01:12:03.471Z,19.33
2018-08-24T01:13:13.593Z,19.19
2018-08-24T01:14:23.434Z,19.16
2018-08-24T01:15:33.545Z,18.88
2018-08-24T01:16:42.578Z,18.95
2018-08-24T01:17:52.156Z,18.85
2018-08-24T01:19:01.996Z,18.82
2018-08-24T01:20:11.567Z,18.73
2018-08-24T01:21:21.416Z,18.67
2018-08-24T01:22:30.984Z,18.6
2018-08-24T01:23:40.282Z,18.23
2018-08-24T01:24:50.391Z,18.05
2018-08-24T01:25:59.966Z,18.08
2018-08-24T01:27:09.821Z,17.96
2018-08-24T01:28:19.383Z,17.92
2018-08-24T01:29:29.226Z,17.92
2018-08-24T01:30:38.797Z,17.89
2018-08-24T01:31:48.633Z,17.89
2018-08-24T01:32:58.524Z,17.89
2018-08-24T01:34:08.101Z,18
2018-08-24T01:35:17.943Z,17.72
2018-08-24T01:36:27.781Z,17.56
2018-08-24T01:37:37.349Z,17.44
2018-08-24T01:38:47.455Z,17.38
2018-08-24T01:39:57.023Z,17.36
2018-08-24T01:41:06.590Z,17.62
2018-08-24T01:42:16.164Z,17.33
2018-08-24T01:43:26.266Z,17.21
2018-08-24T01:44:36.372Z,17.34
2018-08-24T01:45:46.476Z,17.31
2018-08-24T01:46:56.053Z,17.15
2018-08-24T01:48:05.621Z,17.31
2018-08-24T01:49:15.461Z,17.21
2018-08-24T01:50:25.031Z,17.25
2018-08-24T01:51:34.602Z,17.3
2018-08-24T01:52:44.706Z,17.19
2018-08-24T01:53:54.814Z,17.14
2018-08-24T01:55:04.381Z,17.08
2018-08-24T01:56:14.223Z,17.14
2018-08-24T01:57:24.327Z,17.07
2018-08-24T01:58:33.893Z,17.03
2018-08-24T01:59:43.733Z,17.16
2018-08-24T02:00:53.027Z,17.18
2018-08-24T02:02:02.920Z,17.14
2018-08-24T02:03:12.761Z,17.08
2018-08-24T02:04:22.356Z,17.11
2018-08-24T02:05:32.202Z,17.03
2018-08-24T02:06:42.305Z,17.08
2018-08-24T02:07:52.149Z,17.11
2018-08-24T02:09:01.990Z,17.21
2018-08-24T02:10:11.559Z,17.18
2018-08-24T02:11:21.395Z,17.07
2018-08-24T02:12:30.697Z,17
2018-08-24T02:13:39.998Z,17.04
2018-08-24T02:14:50.112Z,17.06
2018-08-24T02:15:59.158Z,16.89
2018-08-24T02:17:08.999Z,16.98
2018-08-24T02:18:18.841Z,16.94
2018-08-24T02:19:28.677Z,16.93
2018-08-24T02:20:37.978Z,16.93
2018-08-24T02:21:47.827Z,16.81
2018-08-24T02:22:57.666Z,16.83
2018-08-24T02:24:06.972Z,16.82
2018-08-24T02:25:17.079Z,16.75
2018-08-24T02:26:27.187Z,16.78
2018-08-24T02:27:36.761Z,16.7
2018-08-24T02:28:46.872Z,16.7
2018-08-24T02:29:56.978Z,16.83
2018-08-24T02:31:06.671Z,16.7
2018-08-24T02:32:16.295Z,16.57
2018-08-24T02:33:26.404Z,16.76
2018-08-24T02:34:35.976Z,16.68
2018-08-24T02:35:45.549Z,16.78
2018-08-24T02:36:55.117Z,16.61
2018-08-24T02:38:04.419Z,16.7
2018-08-24T02:39:14.274Z,16.66
2018-08-24T02:40:24.123Z,16.58
2018-08-24T02:41:33.687Z,16.61
2018-08-24T02:42:43.258Z,16.57
2018-08-24T02:43:52.827Z,16.57
2018-08-24T02:45:02.862Z,16.56
2018-08-24T02:46:13.293Z,16.57
2018-08-24T02:47:23.137Z,16.61
2018-08-24T02:48:33.021Z,16.6
2018-08-24T02:49:42.053Z,16.71
2018-08-24T02:50:51.902Z,16.66
2018-08-24T02:52:01.739Z,16.73
2018-08-24T02:53:11.579Z,16.68
2018-08-24T02:54:21.205Z,16.68
2018-08-24T02:55:31.051Z,16.49
2018-08-24T02:56:40.887Z,16.57
2018-08-24T02:57:51.030Z,16.64
2018-08-24T02:59:00.335Z,16.76
2018-08-24T03:00:10.183Z,16.7
2018-08-24T03:01:20.028Z,16.5
2018-08-24T03:02:30.159Z,16.75
2018-08-24T03:03:39.727Z,16.49
2018-08-24T03:04:49.561Z,16.45
2018-08-24T03:05:59.672Z,16.3
2018-08-24T03:07:08.973Z,16.3
2018-08-24T03:08:18.642Z,16.38
2018-08-24T03:09:28.601Z,16.5
2018-08-24T03:10:38.446Z,16.52
2018-08-24T03:11:48.288Z,16.68
2018-08-24T03:12:57.863Z,16.49
2018-08-24T03:14:07.211Z,16.23
2018-08-24T03:15:16.513Z,16.2
2018-08-24T03:16:26.965Z,16.42
2018-08-24T03:17:37.464Z,16.28
2018-08-24T03:18:47.583Z,16.07
2018-08-24T03:19:57.428Z,16.28
2018-08-24T03:21:06.726Z,16.27
2018-08-24T03:22:16.308Z,16.14
2018-08-24T03:23:26.151Z,16.14
2018-08-24T03:24:36.259Z,15.94
2018-08-24T03:25:46.097Z,15.96
2018-08-24T03:26:55.937Z,15.97
2018-08-24T03:28:05.506Z,15.78
2018-08-24T03:29:15.343Z,15.89
2018-08-24T03:30:25.201Z,16.25
2018-08-24T03:31:35.044Z,16.01
2018-08-24T03:32:44.618Z,15.9
2018-08-24T03:33:54.465Z,16.01
2018-08-24T03:35:03.761Z,15.75
2018-08-24T03:36:13.056Z,15.68
2018-08-24T03:37:22.894Z,15.64
2018-08-24T03:38:32.194Z,15.54
2018-08-24T03:39:42.033Z,15.53
2018-08-24T03:40:51.600Z,15.56
2018-08-24T03:42:01.432Z,15.75
2018-08-24T03:43:11.023Z,15.62
2018-08-24T03:44:20.588Z,15.56
2018-08-24T03:45:30.165Z,15.49
2018-08-24T03:46:39.734Z,15.32
2018-08-24T03:47:49.030Z,15.25
2018-08-24T03:48:58.602Z,15.25
2018-08-24T03:50:08.441Z,15.32
2018-08-24T03:51:18.282Z,15.36
2018-08-24T03:52:28.395Z,15.29
2018-08-24T03:53:38.232Z,15.31
2018-08-24T03:54:47.808Z,15.31
2018-08-24T03:55:57.655Z,15.53
2018-08-24T03:57:06.686Z,15.35
2018-08-24T03:58:16.524Z,15.43
2018-08-24T03:59:25.827Z,15.25
2018-08-24T04:00:35.667Z,15.41
2018-08-24T04:01:45.511Z,15.36
2018-08-24T04:02:55.083Z,15.31
2018-08-24T04:04:04.975Z,15.38
2018-08-24T04:05:14.815Z,15.21
2018-08-24T04:06:24.659Z,15.56
2018-08-24T04:07:34.227Z,15.23
2018-08-24T04:08:44.063Z,15.23
2018-08-24T04:09:54.234Z,15.27
2018-08-24T04:11:03.798Z,15.49
2018-08-24T04:12:13.899Z,15.28
2018-08-24T04:13:23.466Z,15.25
2018-08-24T04:14:33.308Z,15.19
2018-08-24T04:15:42.877Z,15.13
2018-08-24T04:16:52.767Z,15.13
2018-08-24T04:18:02.623Z,15.2
2018-08-24T04:19:12.199Z,15.28
2018-08-24T04:20:21.841Z,15.1
2018-08-24T04:21:31.693Z,15.28
2018-08-24T04:22:41.276Z,15.28
2018-08-24T04:23:50.847Z,15.31
2018-08-24T04:25:00.691Z,15.25
2018-08-24T04:26:10.821Z,15.28
2018-08-24T04:27:20.820Z,15.41
2018-08-24T04:28:30.658Z,15.27
2018-08-24T04:29:40.493Z,15.28
2018-08-24T04:30:50.330Z,15.25
2018-08-24T04:32:00.170Z,15.41
2018-08-24T04:33:10.275Z,15.29
2018-08-24T04:34:19.845Z,15.29
2018-08-24T04:35:29.461Z,15.36
2018-08-24T04:36:39.579Z,15.27
2018-08-24T04:37:49.163Z,15.29
2018-08-24T04:38:59.002Z,15.36
2018-08-24T04:40:08.890Z,15.43
2018-08-24T04:41:18.547Z,15.56
2018-08-24T04:42:28.413Z,15.54
2018-08-24T04:43:38.001Z,15.39
2018-08-24T04:44:47.851Z,15.35
2018-08-24T04:45:57.786Z,15.29
2018-08-24T04:47:07.095Z,15.46
2018-08-24T04:48:16.659Z,15.38
2018-08-24T04:49:26.231Z,15.43
2018-08-24T04:50:36.129Z,15.56
2018-08-24T04:51:45.710Z,15.53
2018-08-24T04:52:55.287Z,15.41
2018-08-24T04:54:05.121Z,15.29
2018-08-24T04:55:14.161Z,15.36
2018-08-24T04:56:24.005Z,15.28
2018-08-24T04:57:33.034Z,15.36
2018-08-24T04:58:42.335Z,15.41
2018-08-24T04:59:52.177Z,15.36
2018-08-24T05:01:02.291Z,15.34
2018-08-24T05:02:12.139Z,15.29
2018-08-24T05:03:21.979Z,15.31
2018-08-24T05:04:31.551Z,15.31
2018-08-24T05:05:41.083Z,15.39
2018-08-24T05:06:51.244Z,15.35
2018-08-24T05:08:01.358Z,15.35
2018-08-24T05:09:11.206Z,15.41
2018-08-24T05:10:21.326Z,15.38
2018-08-24T05:11:31.178Z,15.64
2018-08-24T05:12:40.749Z,15.71
2018-08-24T05:13:50.588Z,15.57
2018-08-24T05:14:59.629Z,15.62
2018-08-24T05:16:09.213Z,15.53
2018-08-24T05:17:19.324Z,15.65
2018-08-24T05:18:29.490Z,15.59
2018-08-24T05:19:39.330Z,15.65
2018-08-24T05:20:48.630Z,15.64
2018-08-24T05:21:57.932Z,15.54
2018-08-24T05:23:07.502Z,15.47
2018-08-24T05:24:17.071Z,15.44
2018-08-24T05:25:26.646Z,15.47
2018-08-24T05:26:36.491Z,15.49
2018-08-24T05:27:46.603Z,15.54
2018-08-24T05:28:56.447Z,15.56
2018-08-24T05:30:05.746Z,15.57
2018-08-24T05:31:15.335Z,15.59
2018-08-24T05:32:25.179Z,15.64
2018-08-24T05:33:35.033Z,15.67
2018-08-24T05:34:45.139Z,15.54
2018-08-24T05:35:54.978Z,15.78
2018-08-24T05:37:05.092Z,15.56
2018-08-24T05:38:14.940Z,15.54
2018-08-24T05:39:24.514Z,15.53
2018-08-24T05:40:34.080Z,15.5
2018-08-24T05:41:43.655Z,15.65
2018-08-24T05:42:53.493Z,15.83
2018-08-24T05:44:03.345Z,15.76
2018-08-24T05:45:13.183Z,15.84
2018-08-24T05:46:23.029Z,15.69
2018-08-24T05:47:32.599Z,15.71
2018-08-24T05:48:42.794Z,15.78
2018-08-24T05:49:52.834Z,15.69
2018-08-24T05:51:02.954Z,15.74
2018-08-24T05:52:11.982Z,15.67
2018-08-24T05:53:21.824Z,15.65
2018-08-24T05:54:31.394Z,15.69
2018-08-24T05:55:41.240Z,15.65
2018-08-24T05:56:51.110Z,15.65
2018-08-24T05:58:00.685Z,15.65
2018-08-24T05:59:10.579Z,15.76
2018-08-24T06:00:20.151Z,15.62
2018-08-24T06:01:29.987Z,15.67
2018-08-24T06:02:39.560Z,15.67
2018-08-24T06:03:48.860Z,15.59
2018-08-24T06:04:58.212Z,15.71
2018-08-24T06:06:08.080Z,15.68
2018-08-24T06:07:17.924Z,15.64
2018-08-24T06:08:27.773Z,15.76
2018-08-24T06:09:37.339Z,15.69
2018-08-24T06:10:46.930Z,15.68
2018-08-24T06:11:57.093Z,15.62
2018-08-24T06:13:06.938Z,15.75
2018-08-24T06:14:16.514Z,15.8
2018-08-24T06:15:26.363Z,15.82
2018-08-24T06:16:35.983Z,15.67
2018-08-24T06:17:45.230Z,15.68
2018-08-24T06:18:54.797Z,15.69
2018-08-24T06:20:04.100Z,15.82
2018-08-24T06:21:13.675Z,15.8
2018-08-24T06:22:23.265Z,15.82
2018-08-24T06:23:33.375Z,15.89
2018-08-24T06:24:43.670Z,15.86
2018-08-24T06:25:53.776Z,15.9
2018-08-24T06:27:03.075Z,15.83
2018-08-24T06:28:12.915Z,15.93
2018-08-24T06:29:22.751Z,16
2018-08-24T06:30:32.609Z,16.01
2018-08-24T06:31:42.729Z,15.94
2018-08-24T06:32:52.251Z,16
2018-08-24T06:34:02.574Z,16.02
2018-08-24T06:35:12.147Z,16.25
2018-08-24T06:36:22.261Z,16.04
2018-08-24T06:37:32.117Z,15.97
2018-08-24T06:38:41.954Z,15.97
2018-08-24T06:39:51.797Z,15.97
2018-08-24T06:41:01.383Z,16.02
2018-08-24T06:42:10.958Z,16
2018-08-24T06:43:19.988Z,15.97
2018-08-24T06:44:29.830Z,16.05
2018-08-24T06:45:39.402Z,16.04
2018-08-24T06:46:49.238Z,16.17
2018-08-24T06:47:59.074Z,16.15
2018-08-24T06:49:08.907Z,16.04
2018-08-24T06:50:18.478Z,16.05
2018-08-24T06:51:28.364Z,16.01
2018-08-24T06:52:38.472Z,16.08
2018-08-24T06:53:48.946Z,16.04
2018-08-24T06:54:59.362Z,16.08
2018-08-24T06:56:09.215Z,16.05
2018-08-24T06:57:19.057Z,16.04
2018-08-24T06:58:28.931Z,16.11
2018-08-24T06:59:39.306Z,16.09
2018-08-24T07:00:49.135Z,16.21
2018-08-24T07:01:59.244Z,16.25
2018-08-24T07:03:08.861Z,16.23
2018-08-24T07:04:18.424Z,16.28
2018-08-24T07:05:28.000Z,16.28
2018-08-24T07:06:37.849Z,16.24
2018-08-24T07:07:47.690Z,16.3
2018-08-24T07:08:57.531Z,16.34
2018-08-24T07:10:06.562Z,16.35
2018-08-24T07:11:16.443Z,16.42
2018-08-24T07:12:26.568Z,16.57
2018-08-24T07:13:36.700Z,16.58
2018-08-24T07:14:46.010Z,16.7
2018-08-24T07:15:55.849Z,16.71
2018-08-24T07:17:05.426Z,16.68
2018-08-24T07:18:15.266Z,16.75
2018-08-24T07:19:24.833Z,16.68
2018-08-24T07:20:34.687Z,16.73
2018-08-24T07:21:43.985Z,16.68
2018-08-24T07:22:53.824Z,16.53
2018-08-24T07:24:03.667Z,16.64
2018-08-24T07:25:13.978Z,16.71
2018-08-24T07:26:24.276Z,16.76
2018-08-24T07:27:34.125Z,16.93
2018-08-24T07:28:44.285Z,16.85
2018-08-24T07:29:54.130Z,16.83
2018-08-24T07:31:03.969Z,16.85
2018-08-24T07:32:13.810Z,16.93
2018-08-24T07:33:23.110Z,16.91
2018-08-24T07:34:32.956Z,16.88
2018-08-24T07:35:42.794Z,16.96
2018-08-24T07:36:52.103Z,16.96
2018-08-24T07:38:01.944Z,17
2018-08-24T07:39:11.785Z,17.04
2018-08-24T07:40:21.622Z,17.08
2018-08-24T07:41:32.001Z,17.12
2018-08-24T07:42:42.582Z,17.19
2018-08-24T07:43:52.751Z,17.07
2018-08-24T07:45:02.330Z,17.11
2018-08-24T07:46:11.365Z,17.06
2018-08-24T07:47:21.206Z,17.15
2018-08-24T07:48:30.775Z,17.04
2018-08-24T07:49:40.081Z,17.14
2018-08-24T07:50:50.023Z,17.06
2018-08-24T07:52:00.088Z,17.08
2018-08-24T07:53:09.661Z,17.01
2018-08-24T07:54:19.499Z,16.91
2018-08-24T07:55:29.141Z,16.94
2018-08-24T07:56:38.770Z,17.01
2018-08-24T07:57:48.664Z,16.98
2018-08-24T07:58:58.502Z,17.01
2018-08-24T08:00:07.803Z,16.93
2018-08-24T08:01:17.694Z,16.88
2018-08-24T08:02:27.536Z,16.93
2018-08-24T08:03:37.106Z,16.93
2018-08-24T08:04:46.955Z,16.82
2018-08-24T08:05:56.528Z,16.94
2018-08-24T08:07:06.636Z,16.88
2018-08-24T08:08:16.476Z,16.88
2018-08-24T08:09:26.048Z,16.91
2018-08-24T08:10:35.889Z,16.88
2018-08-24T08:11:45.462Z,16.88
2018-08-24T08:12:55.296Z,16.88
2018-08-24T08:14:05.143Z,16.91
2018-08-24T08:15:15.010Z,16.88
2018-08-24T08:16:24.588Z,16.86
2018-08-24T08:17:34.451Z,16.91
2018-08-24T08:18:44.338Z,16.88
2018-08-24T08:19:54.272Z,16.93
2018-08-24T08:21:04.228Z,16.94
2018-08-24T08:22:14.120Z,16.91
2018-08-24T08:23:23.423Z,16.93
2018-08-24T08:24:33.059Z,16.94
2018-08-24T08:25:42.690Z,16.83
2018-08-24T08:26:52.529Z,16.94
2018-08-24T08:28:02.371Z,16.91
2018-08-24T08:29:11.945Z,16.91
2018-08-24T08:30:21.534Z,16.88
2018-08-24T08:31:31.649Z,16.96
2018-08-24T08:32:41.233Z,16.93
2018-08-24T08:33:50.531Z,16.94
2018-08-24T08:35:00.393Z,17.03
2018-08-24T08:36:09.422Z,16.96
2018-08-24T08:37:18.995Z,16.96
2018-08-24T08:38:29.132Z,16.93
2018-08-24T08:39:38.972Z,16.93
2018-08-24T08:40:48.545Z,16.97
2018-08-24T08:41:58.398Z,16.96
2018-08-24T08:43:07.973Z,16.91
2018-08-24T08:44:17.545Z,16.94
2018-08-24T08:45:27.945Z,16.93
2018-08-24T08:46:37.561Z,16.94
2018-08-24T08:47:46.861Z,16.98
2018-08-24T08:48:56.971Z,16.98
2018-08-24T08:50:06.549Z,17.12
2018-08-24T08:51:16.115Z,17.06
2018-08-24T08:52:25.688Z,17.03
2018-08-24T08:53:36.158Z,17.01
2018-08-24T08:54:45.831Z,17.04
2018-08-24T08:55:55.129Z,17.01
2018-08-24T08:57:04.698Z,17.06
2018-08-24T08:58:14.536Z,16.98
2018-08-24T08:59:24.696Z,17.01
2018-08-24T09:00:34.812Z,17.19
2018-08-24T09:01:44.652Z,17.19
2018-08-24T09:02:54.493Z,17.15
2018-08-24T09:04:04.073Z,17.12
2018-08-24T09:05:13.911Z,17.11
2018-08-24T09:06:24.206Z,17.11
2018-08-24T09:07:34.257Z,17.12
2018-08-24T09:08:44.098Z,17.06
2018-08-24T09:09:53.948Z,17.08
2018-08-24T09:11:03.259Z,16.93
2018-08-24T09:12:13.376Z,16.96
2018-08-24T09:13:22.953Z,16.94
2018-08-24T09:14:33.075Z,16.89
2018-08-24T09:15:42.950Z,16.93
2018-08-24T09:16:52.789Z,17.01
2018-08-24T09:18:02.625Z,17
2018-08-24T09:19:12.200Z,17.06
2018-08-24T09:20:22.039Z,17.07
2018-08-24T09:21:31.898Z,17.08
2018-08-24T09:22:41.465Z,17.08
2018-08-24T09:23:51.307Z,17.08
2018-08-24T09:25:01.146Z,17.25
2018-08-24T09:26:10.724Z,17.31
2018-08-24T09:27:20.839Z,17.18
2018-08-24T09:28:31.000Z,17.26
2018-08-24T09:29:40.859Z,17.28
2018-08-24T09:30:50.703Z,17.33
2018-08-24T09:32:00.282Z,17.36
2018-08-24T09:33:10.131Z,17.54
2018-08-24T09:34:19.749Z,17.56
2018-08-24T09:35:29.589Z,17.62
2018-08-24T09:36:39.433Z,17.64
2018-08-24T09:37:49.580Z,17.71
2018-08-24T09:38:59.477Z,17.78
2018-08-24T09:40:09.322Z,17.74
2018-08-24T09:41:19.166Z,17.95
2018-08-24T09:42:28.735Z,18
2018-08-24T09:43:38.033Z,17.95
2018-08-24T09:44:47.879Z,17.89
2018-08-24T09:45:57.179Z,17.92
2018-08-24T09:47:07.029Z,17.93
2018-08-24T09:48:16.876Z,17.99
2018-08-24T09:49:26.717Z,18.1
2018-08-24T09:50:36.555Z,18.2
2018-08-24T09:51:45.904Z,18.23
2018-08-24T09:52:55.213Z,18.11
2018-08-24T09:54:05.320Z,18.33
2018-08-24T09:55:15.166Z,18.3
2018-08-24T09:56:24.733Z,18.32
2018-08-24T09:57:34.623Z,18.3
2018-08-24T09:58:44.197Z,18.44
2018-08-24T09:59:54.318Z,18.47
2018-08-24T10:01:04.158Z,18.36
2018-08-24T10:02:13.729Z,18.41
2018-08-24T10:03:23.590Z,18.32
2018-08-24T10:04:33.166Z,18.29
2018-08-24T10:05:42.466Z,18.26
2018-08-24T10:06:52.685Z,18.41
2018-08-24T10:08:02.452Z,18.55
2018-08-24T10:09:12.354Z,18.52
2018-08-24T10:10:22.212Z,18.63
2018-08-24T10:11:32.064Z,18.67
2018-08-24T10:12:41.727Z,18.91
2018-08-24T10:13:51.584Z,18.85
2018-08-24T10:15:01.440Z,18.92
2018-08-24T10:16:11.553Z,19.06
2018-08-24T10:17:21.128Z,19.25
2018-08-24T10:18:30.705Z,19.39
2018-08-24T10:19:40.280Z,19.4
2018-08-24T10:20:50.402Z,19.5
2018-08-24T10:22:00.516Z,19.62
2018-08-24T10:23:10.051Z,19.58
2018-08-24T10:24:19.862Z,19.51
2018-08-24T10:25:29.436Z,19.44
2018-08-24T10:26:39.554Z,19.23
2018-08-24T10:27:49.973Z,19.22
2018-08-24T10:29:00.088Z,19.1
2018-08-24T10:30:10.216Z,19.06
2018-08-24T10:31:20.063Z,19.04
2018-08-24T10:32:30.197Z,18.9
2018-08-24T10:33:40.411Z,19
2018-08-24T10:34:50.490Z,18.98
2018-08-24T10:36:00.072Z,19.08
2018-08-24T10:37:09.652Z,19.11
2018-08-24T10:38:19.228Z,19.08
2018-08-24T10:39:29.347Z,18.92
2018-08-24T10:40:39.494Z,18.98
2018-08-24T10:41:49.135Z,18.92
2018-08-24T10:42:58.980Z,18.95
2018-08-24T10:44:08.552Z,18.81
2018-08-24T10:45:17.590Z,18.85
2018-08-24T10:46:27.176Z,18.81
2018-08-24T10:47:37.045Z,18.85
2018-08-24T10:48:46.942Z,18.84
2018-08-24T10:49:56.523Z,18.94
2018-08-24T10:51:05.834Z,18.99
2018-08-24T10:52:15.464Z,19.14
2018-08-24T10:53:25.055Z,19.16
2018-08-24T10:54:34.627Z,19.4
2018-08-24T10:55:44.719Z,19.46
2018-08-24T10:56:55.347Z,19.61
2018-08-24T10:58:04.947Z,19.63
2018-08-24T10:59:14.793Z,19.51
2018-08-24T11:00:24.362Z,19.54
2018-08-24T11:01:33.662Z,19.54
2018-08-24T11:02:43.244Z,19.5
2018-08-24T11:03:52.826Z,19.48
2018-08-24T11:05:02.941Z,19.58
2018-08-24T11:06:12.782Z,19.63
2018-08-24T11:07:22.663Z,19.56
2018-08-24T11:08:32.548Z,19.63
2018-08-24T11:09:42.116Z,19.73
2018-08-24T11:10:51.686Z,19.76
2018-08-24T11:12:01.792Z,19.73
2018-08-24T11:13:11.360Z,19.74
2018-08-24T11:14:21.465Z,19.74
2018-08-24T11:15:31.040Z,19.99
2018-08-24T11:16:41.002Z,19.87
2018-08-24T11:17:51.237Z,19.77
2018-08-24T11:19:00.592Z,19.74
2018-08-24T11:20:10.437Z,19.73
2018-08-24T11:21:19.749Z,19.74
2018-08-24T11:22:29.326Z,19.8
2018-08-24T11:23:39.443Z,19.87
2018-08-24T11:24:49.293Z,19.77
2018-08-24T11:25:58.867Z,19.88
2018-08-24T11:27:08.754Z,19.86
2018-08-24T11:28:18.337Z,19.95
2018-08-24T11:29:28.205Z,19.77
2018-08-24T11:30:37.709Z,19.76
2018-08-24T11:31:47.284Z,19.74
2018-08-24T11:32:57.401Z,19.81
2018-08-24T11:34:07.088Z,19.84
2018-08-24T11:35:16.867Z,19.87
2018-08-24T11:36:27.033Z,19.95
2018-08-24T11:37:37.117Z,19.98
2018-08-24T11:38:46.686Z,20.13
2018-08-24T11:39:56.823Z,20.21
2018-08-24T11:41:06.401Z,20.14
2018-08-24T11:42:15.687Z,20.26
2018-08-24T11:43:26.033Z,20.21
2018-08-24T11:44:35.352Z,20.29
2018-08-24T11:45:44.978Z,20.33
2018-08-24T11:46:54.023Z,20.35
2018-08-24T11:48:04.092Z,20.52
2018-08-24T11:49:14.219Z,20.69
2018-08-24T11:50:24.336Z,20.8
2018-08-24T11:51:33.913Z,20.76
2018-08-24T11:52:43.551Z,20.91
2018-08-24T11:53:53.165Z,20.91
2018-08-24T11:55:03.098Z,20.97
2018-08-24T11:56:12.947Z,21.01
2018-08-24T11:57:22.793Z,21.04
2018-08-24T11:58:32.375Z,21.01
2018-08-24T11:59:42.415Z,21.06
2018-08-24T12:00:52.463Z,20.85
2018-08-24T12:02:02.498Z,20.82
2018-08-24T12:03:12.617Z,20.8
2018-08-24T12:04:22.743Z,20.8
2018-08-24T12:05:32.051Z,20.69
2018-08-24T12:06:41.632Z,20.58
2018-08-24T12:07:51.625Z,20.51
2018-08-24T12:09:02.069Z,20.31
2018-08-24T12:10:11.393Z,19.76
2018-08-24T12:11:20.970Z,19.46
2018-08-24T12:12:30.678Z,18.99
2018-08-24T12:13:40.831Z,18.82
2018-08-24T12:14:50.441Z,18.57
2018-08-24T12:16:00.033Z,18.8
2018-08-24T12:17:09.339Z,19
2018-08-24T12:18:19.066Z,19.06
2018-08-24T12:19:28.742Z,19.08
2018-08-24T12:20:38.591Z,19.26
2018-08-24T12:21:48.854Z,19.29
2018-08-24T12:22:58.752Z,19.41
2018-08-24T12:24:08.599Z,19.61
2018-08-24T12:25:18.448Z,19.68
2018-08-24T12:26:28.565Z,19.69
2018-08-24T12:27:38.408Z,19.74
2018-08-24T12:28:48.247Z,20.02
2018-08-24T12:29:57.825Z,19.98
2018-08-24T12:31:07.664Z,19.99
2018-08-24T12:32:17.424Z,20.05
2018-08-24T12:33:27.045Z,20.13
2018-08-24T12:34:36.396Z,20.2
2018-08-24T12:35:46.073Z,20.23
2018-08-24T12:36:55.923Z,20.26
2018-08-24T12:38:05.755Z,20.35
2018-08-24T12:39:15.491Z,20.36
2018-08-24T12:40:25.336Z,20.38
2018-08-24T12:41:35.185Z,20.51
2018-08-24T12:42:45.038Z,20.57
2018-08-24T12:43:54.615Z,20.7
2018-08-24T12:45:03.928Z,20.67
2018-08-24T12:46:13.773Z,20.72
2018-08-24T12:47:23.629Z,20.87
2018-08-24T12:48:32.668Z,20.87
2018-08-24T12:49:42.242Z,20.99
2018-08-24T12:50:52.368Z,20.92
2018-08-24T12:52:02.321Z,20.97
2018-08-24T12:53:12.040Z,20.69
2018-08-24T12:54:21.887Z,20.51
2018-08-24T12:55:31.742Z,20.5
2018-08-24T12:56:41.859Z,20.39
2018-08-24T12:57:51.982Z,20.38
2018-08-24T12:59:01.826Z,20.18
2018-08-24T13:00:11.405Z,20.24
2018-08-24T13:01:21.270Z,19.71
2018-08-24T13:02:30.851Z,19.06
2018-08-24T13:03:40.752Z,18.44
2018-08-24T13:04:50.330Z,17.03
2018-08-24T13:05:59.627Z,15.93
2018-08-24T13:07:09.212Z,15.35
2018-08-24T13:08:19.058Z,14.58
2018-08-24T13:09:28.645Z,14.28
2018-08-24T13:10:37.963Z,14.5
2018-08-24T13:11:47.543Z,14.58
2018-08-24T13:12:57.112Z,14.69
2018-08-24T13:14:06.416Z,14.51
2018-08-24T13:15:15.845Z,14.29
2018-08-24T13:16:26.118Z,14.5
2018-08-24T13:17:35.694Z,14.54
2018-08-24T13:18:45.542Z,14.61
2018-08-24T13:19:55.394Z,14.65
2018-08-24T13:21:04.420Z,14.83
2018-08-24T13:22:13.996Z,15.03
2018-08-24T13:23:23.841Z,15.16
2018-08-24T13:24:33.145Z,15.53
2018-08-24T13:25:42.453Z,15.51
2018-08-24T13:26:52.311Z,15.54
2018-08-24T13:28:01.938Z,15.64
2018-08-24T13:29:12.979Z,15.78
2018-08-24T13:30:22.822Z,16.17
2018-08-24T13:31:32.407Z,15.71
2018-08-24T13:32:41.712Z,15.82
2018-08-24T13:33:51.292Z,15.6
2018-08-24T13:35:00.651Z,15.53
2018-08-24T13:36:10.240Z,15.53
2018-08-24T13:37:20.083Z,15.32
2018-08-24T13:38:29.923Z,15.31
2018-08-24T13:39:40.035Z,15.29
2018-08-24T13:40:49.610Z,15.43
2018-08-24T13:41:59.519Z,15.43
2018-08-24T13:43:09.118Z,15.56
2018-08-24T13:44:18.690Z,15.62
2018-08-24T13:45:27.993Z,15.65
2018-08-24T13:46:37.576Z,15.64
2018-08-24T13:47:47.153Z,16
2018-08-24T13:48:56.725Z,15.93
2018-08-24T13:50:06.311Z,16.38
2018-08-24T13:51:15.615Z,16.52
2018-08-24T13:52:24.926Z,16.79
2018-08-24T13:53:34.648Z,16.97
2018-08-24T13:54:45.292Z,17.16
2018-08-24T13:55:55.435Z,17.43
2018-08-24T13:57:05.318Z,17.79
2018-08-24T13:58:14.898Z,18
2018-08-24T13:59:24.584Z,18.27
2018-08-24T14:00:34.832Z,18.39
2018-08-24T14:01:44.677Z,18.44
2018-08-24T14:02:54.540Z,18.58
2018-08-24T14:04:04.385Z,18.65
2018-08-24T14:05:13.992Z,18.81
2018-08-24T14:06:23.647Z,18.81
2018-08-24T14:07:33.504Z,18.85
2018-08-24T14:08:42.543Z,18.78
2018-08-24T14:09:52.117Z,18.58
2018-08-24T14:11:01.961Z,18.41
2018-08-24T14:12:12.075Z,18.48
2018-08-24T14:13:21.731Z,18.42
2018-08-24T14:14:31.408Z,18.18
2018-08-24T14:15:40.720Z,18.33
2018-08-24T14:16:50.311Z,18.25
2018-08-24T14:17:59.887Z,18.17
2018-08-24T14:19:09.742Z,18.26
2018-08-24T14:20:19.051Z,18.3
2018-08-24T14:21:28.634Z,18.27
2018-08-24T14:22:38.477Z,18.26
2018-08-24T14:23:48.101Z,18.67
2018-08-24T14:24:58.219Z,18.87
2018-08-24T14:26:07.797Z,19.21
2018-08-24T14:27:17.657Z,19.65
2018-08-24T14:28:27.234Z,19.78
2018-08-24T14:29:36.822Z,20.08
2018-08-24T14:30:46.138Z,20.06
2018-08-24T14:31:56.279Z,20.11
2018-08-24T14:33:06.147Z,20.1
2018-08-24T14:34:15.725Z,19.87
2018-08-24T14:35:25.035Z,19.92
2018-08-24T14:36:34.882Z,20.06
2018-08-24T14:37:44.730Z,20.13
2018-08-24T14:38:54.315Z,20.03
2018-08-24T14:40:03.895Z,20.21
2018-08-24T14:41:13.771Z,20.29
2018-08-24T14:42:23.898Z,20.32
2018-08-24T14:43:33.484Z,20.33
2018-08-24T14:44:43.344Z,20.17
2018-08-24T14:45:53.470Z,20.05
2018-08-24T14:47:03.056Z,20.01
2018-08-24T14:48:13.139Z,19.86
2018-08-24T14:49:22.931Z,19.65
2018-08-24T14:50:32.780Z,19.61
2018-08-24T14:51:42.908Z,19.66
2018-08-24T14:52:52.769Z,19.88
2018-08-24T14:54:02.347Z,19.98
2018-08-24T14:55:11.930Z,20.24
2018-08-24T14:56:21.784Z,20.52
2018-08-24T14:57:31.937Z,20.73
2018-08-24T14:58:42.135Z,20.62
2018-08-24T14:59:51.453Z,20.38
2018-08-24T15:01:01.308Z,20.33
2018-08-24T15:02:10.613Z,20.2